createdAt,value
2022-07-26T00:01:32.850Z,15.13
2022-07-26T00:03:59.649Z,16.20
2022-07-26T00:06:26.034Z,16.02
2022-07-26T00:08:52.785Z,17.80
2022-07-26T00:11:19.432Z,15.77
2022-07-26T00:13:45.996Z,16.58
2022-07-26T00:16:12.503Z,32.92
2022-07-26T00:18:39.289Z,19.52
2022-07-26T00:21:05.939Z,19.95
2022-07-26T00:23:33.235Z,19.13
2022-07-26T00:25:59.452Z,23.20
2022-07-26T00:28:25.633Z,23.77
2022-07-26T00:30:51.865Z,32.08
2022-07-26T00:33:18.169Z,23.45
2022-07-26T00:35:44.382Z,25.13
2022-07-26T00:38:10.631Z,22.17
2022-07-26T00:40:36.819Z,27.50
2022-07-26T00:43:03.314Z,22.80
2022-07-26T00:45:29.571Z,27.77
2022-07-26T00:47:55.892Z,28.65
2022-07-26T00:50:22.097Z,29.52
2022-07-26T00:52:50.050Z,25.40
2022-07-26T00:55:17.472Z,25.20
2022-07-26T00:57:44.615Z,24.73
2022-07-26T01:00:17.809Z,22.60
2022-07-26T01:02:44.921Z,21.73
2022-07-26T01:05:11.565Z,22.90
2022-07-26T01:07:38.855Z,26.15
2022-07-26T01:10:07.698Z,28.70
2022-07-26T01:12:33.874Z,26.17
2022-07-26T01:15:00.197Z,25.73
2022-07-26T01:17:26.404Z,28.58
2022-07-26T01:19:52.644Z,35.03
2022-07-26T01:22:18.836Z,54.00
2022-07-26T01:24:45.006Z,71.95
2022-07-26T01:27:11.177Z,89.10
2022-07-26T01:29:37.552Z,126.15
2022-07-26T01:32:05.140Z,107.32
2022-07-26T01:34:31.780Z,150.35
2022-07-26T01:36:57.960Z,169.57
2022-07-26T01:39:24.152Z,163.70
2022-07-26T01:41:50.315Z,149.93
2022-07-26T01:44:16.559Z,155.70
2022-07-26T01:46:42.792Z,154.15
2022-07-26T01:49:09.463Z,162.52
2022-07-26T01:51:35.833Z,159.40
2022-07-26T01:54:02.891Z,159.02
2022-07-26T01:56:29.070Z,143.25
2022-07-26T01:58:55.253Z,136.68
2022-07-26T02:01:39.270Z,72.18
2022-07-26T02:04:06.530Z,138.23
2022-07-26T02:06:33.034Z,117.53
2022-07-26T02:09:00.675Z,118.53
2022-07-26T02:11:28.048Z,114.00
2022-07-26T02:13:54.203Z,110.95
2022-07-26T02:16:20.465Z,99.40
2022-07-26T02:18:46.716Z,125.97
2022-07-26T02:21:12.915Z,144.25
2022-07-26T02:23:41.244Z,122.45
2022-07-26T02:26:08.218Z,77.13
2022-07-26T02:28:34.378Z,88.97
2022-07-26T02:31:00.561Z,92.32
2022-07-26T02:33:27.348Z,72.18
2022-07-26T02:35:53.516Z,162.75
2022-07-26T02:38:19.740Z,117.57
2022-07-26T02:40:46.099Z,94.70
2022-07-26T02:43:12.541Z,65.70
2022-07-26T02:45:38.776Z,57.80
2022-07-26T02:48:06.836Z,54.00
2022-07-26T02:50:33.564Z,50.75
2022-07-26T02:52:59.717Z,52.35
2022-07-26T02:55:26.817Z,51.58
2022-07-26T02:57:53.008Z,50.28
2022-07-26T03:00:24.520Z,44.78
2022-07-26T03:02:51.558Z,48.92
2022-07-26T03:05:18.543Z,41.80
2022-07-26T03:07:44.723Z,85.22
2022-07-26T03:10:10.928Z,74.63
2022-07-26T03:12:37.145Z,148.45
2022-07-26T03:15:03.803Z,183.25
2022-07-26T03:17:29.954Z,176.88
2022-07-26T03:19:58.449Z,189.43
2022-07-26T03:22:24.605Z,227.65
2022-07-26T03:24:50.800Z,217.00
2022-07-26T03:27:17.022Z,389.33
2022-07-26T03:29:43.215Z,157.00
2022-07-26T03:32:10.041Z,112.47
2022-07-26T03:34:36.389Z,105.60
2022-07-26T03:37:02.734Z,201.18
2022-07-26T03:39:28.964Z,148.27
2022-07-26T03:41:55.192Z,148.90
2022-07-26T03:44:21.360Z,148.40
2022-07-26T03:46:47.543Z,115.18
2022-07-26T03:49:16.830Z,110.60
2022-07-26T03:51:43.494Z,142.35
2022-07-26T03:54:10.062Z,138.25
2022-07-26T03:56:36.565Z,136.15
2022-07-26T03:59:05.612Z,283.35
2022-07-26T04:01:32.018Z,209.23
2022-07-26T04:03:58.290Z,223.10
2022-07-26T04:06:24.521Z,257.95
2022-07-26T04:08:50.828Z,424.80
2022-07-26T04:11:17.025Z,320.52
2022-07-26T04:13:43.214Z,277.85
2022-07-26T04:16:09.434Z,321.35
2022-07-26T04:18:35.899Z,299.88
2022-07-26T04:21:02.132Z,345.15
2022-07-26T04:23:28.291Z,324.98
2022-07-26T04:25:54.527Z,355.67
2022-07-26T04:28:20.908Z,301.30
2022-07-26T04:30:48.105Z,285.55
2022-07-26T04:33:14.361Z,244.52
2022-07-26T04:35:40.527Z,324.55
2022-07-26T04:38:06.677Z,427.55
2022-07-26T04:40:39.265Z,477.75
2022-07-26T04:43:07.254Z,456.57
2022-07-26T04:45:36.593Z,519.80
2022-07-26T04:48:03.094Z,393.98
2022-07-26T04:50:29.260Z,680.58
2022-07-26T04:52:55.731Z,418.67
2022-07-26T04:55:23.101Z,409.02
2022-07-26T04:57:50.168Z,353.27
2022-07-26T05:00:23.520Z,436.00
2022-07-26T05:03:01.088Z,520.55
2022-07-26T05:05:30.782Z,487.55
2022-07-26T05:08:03.548Z,526.08
2022-07-26T05:10:36.825Z,533.05
2022-07-26T05:13:05.349Z,20.42
2022-07-26T05:15:34.999Z,16.65
2022-07-26T05:18:07.127Z,15.68
2022-07-26T05:20:34.828Z,14.65
2022-07-26T05:23:01.152Z,16.73
2022-07-26T05:25:27.458Z,17.50
2022-07-26T05:27:54.090Z,13.98
2022-07-26T05:30:20.839Z,15.55
2022-07-26T05:32:47.282Z,16.05
2022-07-26T05:35:13.537Z,18.05
2022-07-26T05:37:39.735Z,16.90
2022-07-26T05:40:06.704Z,14.13
2022-07-26T05:42:32.973Z,12.23
2022-07-26T05:44:59.146Z,14.38
2022-07-26T05:47:25.365Z,13.18
2022-07-26T05:49:51.539Z,8.07
2022-07-26T05:52:17.762Z,11.90
2022-07-26T05:54:43.916Z,13.80
2022-07-26T05:57:10.104Z,13.68
2022-07-26T05:59:36.259Z,11.20
2022-07-26T06:02:02.581Z,11.65
2022-07-26T06:04:44.127Z,12.73
2022-07-26T06:07:13.806Z,10.00
2022-07-26T06:09:39.959Z,13.88
2022-07-26T06:12:06.469Z,13.38
2022-07-26T06:14:32.646Z,11.40
2022-07-26T06:16:58.873Z,8.60
2022-07-26T06:19:25.059Z,11.43
2022-07-26T06:21:51.962Z,12.18
2022-07-26T06:24:18.142Z,12.60
2022-07-26T06:26:44.839Z,12.88
2022-07-26T06:29:10.991Z,10.45
2022-07-26T06:31:37.588Z,11.38
2022-07-26T06:34:04.010Z,10.07
2022-07-26T06:36:31.210Z,9.38
2022-07-26T06:38:57.934Z,8.80
2022-07-26T06:41:24.243Z,8.20
2022-07-26T06:43:50.430Z,12.40
2022-07-26T06:46:17.146Z,8.52
2022-07-26T06:48:47.582Z,8.35
2022-07-26T06:51:19.071Z,7.82
2022-07-26T06:53:45.229Z,9.40
2022-07-26T06:56:13.427Z,11.80
2022-07-26T06:58:39.591Z,7.07
2022-07-26T07:01:05.913Z,8.82
2022-07-26T07:03:32.120Z,6.97
2022-07-26T07:05:58.271Z,7.53
2022-07-26T07:08:24.950Z,8.30
2022-07-26T07:10:52.562Z,10.70
2022-07-26T07:13:19.703Z,8.68
2022-07-26T07:15:45.885Z,5.65
2022-07-26T07:18:12.195Z,6.40
2022-07-26T07:20:40.255Z,16.00
2022-07-26T07:23:07.843Z,12.07
2022-07-26T07:25:34.345Z,8.63
2022-07-26T07:28:00.633Z,8.02
2022-07-26T07:30:28.061Z,9.10
2022-07-26T07:32:55.699Z,7.47
2022-07-26T07:35:23.022Z,6.45
2022-07-26T07:37:53.212Z,18.23
2022-07-26T07:40:20.303Z,28.15
2022-07-26T07:42:46.480Z,25.10
2022-07-26T07:45:12.719Z,13.52
2022-07-26T07:47:38.938Z,17.10
2022-07-26T07:50:05.742Z,9.63
2022-07-26T07:52:31.907Z,16.45
2022-07-26T07:55:17.763Z,17.05
2022-07-26T07:57:44.235Z,16.85
2022-07-26T08:00:15.954Z,13.88
2022-07-26T08:02:42.588Z,15.85
2022-07-26T08:05:14.328Z,24.23
2022-07-26T08:07:41.671Z,15.68
2022-07-26T08:10:08.583Z,17.92
2022-07-26T08:12:34.761Z,18.08
2022-07-26T08:15:01.504Z,18.80
2022-07-26T08:17:33.790Z,14.65
2022-07-26T08:20:01.644Z,20.58
2022-07-26T08:22:27.848Z,18.20
2022-07-26T08:24:54.103Z,27.23
2022-07-26T08:27:20.578Z,23.52
2022-07-26T08:29:46.934Z,56.42
2022-07-26T08:32:13.156Z,80.10
2022-07-26T08:34:39.350Z,87.25
2022-07-26T08:37:17.223Z,87.28
2022-07-26T08:39:43.851Z,76.10
2022-07-26T08:42:14.991Z,94.85
2022-07-26T08:44:45.888Z,72.57
2022-07-26T08:47:13.606Z,113.90
2022-07-26T08:49:40.155Z,63.13
2022-07-26T08:52:07.963Z,73.38
2022-07-26T08:54:34.131Z,67.80
2022-07-26T08:57:00.297Z,54.90
2022-07-26T08:59:27.765Z,59.83
2022-07-26T09:02:03.105Z,45.67
2022-07-26T09:04:37.432Z,46.88
2022-07-26T09:07:10.771Z,46.55
2022-07-26T09:09:57.216Z,44.50
2022-07-26T09:12:25.123Z,34.22
2022-07-26T09:14:51.872Z,34.38
2022-07-26T09:17:20.541Z,29.95
2022-07-26T09:20:02.332Z,28.65
2022-07-26T09:22:28.513Z,51.17
2022-07-26T09:24:54.664Z,44.88
2022-07-26T09:27:24.095Z,66.40
2022-07-26T09:29:55.128Z,65.28
2022-07-26T09:32:23.505Z,44.17
2022-07-26T09:35:23.912Z,48.85
2022-07-26T09:37:55.470Z,55.55
2022-07-26T09:40:21.765Z,34.70
2022-07-26T09:43:00.467Z,30.80
2022-07-26T09:45:28.996Z,33.88
2022-07-26T09:47:55.292Z,34.95
2022-07-26T09:50:24.356Z,32.13
2022-07-26T09:53:15.995Z,20.77
2022-07-26T09:55:45.325Z,23.00
2022-07-26T09:58:16.176Z,7.13
2022-07-26T10:00:43.622Z,6.03
2022-07-26T10:03:10.198Z,6.82
2022-07-26T10:05:37.801Z,4.80
2022-07-26T10:08:05.371Z,7.43
2022-07-26T10:10:40.079Z,9.40
2022-07-26T10:13:08.639Z,7.28
2022-07-26T10:15:48.235Z,5.97
2022-07-26T10:18:35.854Z,4.95
2022-07-26T10:21:25.377Z,8.80
2022-07-26T10:24:01.693Z,5.28
2022-07-26T10:26:36.652Z,4.63
2022-07-26T10:31:48.484Z,6.85
2022-07-26T10:34:31.113Z,4.18
2022-07-26T10:36:59.787Z,4.25
2022-07-26T10:39:27.099Z,5.20
2022-07-26T10:42:02.759Z,3.92
2022-07-26T10:44:34.702Z,4.68
2022-07-26T10:47:07.050Z,7.35
2022-07-26T10:49:38.410Z,4.55
2022-07-26T10:52:07.948Z,4.00
2022-07-26T10:55:04.356Z,2.80
2022-07-26T10:57:48.889Z,3.72
2022-07-26T11:00:24.520Z,3.20
2022-07-26T11:02:55.031Z,4.03
2022-07-26T11:05:22.568Z,4.28
2022-07-26T11:07:56.611Z,4.55
2022-07-26T11:10:29.320Z,4.20
2022-07-26T11:13:05.491Z,4.65
2022-07-26T11:15:32.408Z,4.20
2022-07-26T11:18:18.143Z,4.40
2022-07-26T11:20:47.044Z,5.80
2022-07-26T11:23:16.215Z,9.05
2022-07-26T11:25:42.379Z,5.72
2022-07-26T11:28:08.537Z,3.92
2022-07-26T11:30:35.982Z,2.90
2022-07-26T11:33:03.980Z,12.95
2022-07-26T11:35:30.318Z,5.50
2022-07-26T11:38:09.208Z,4.80
2022-07-26T11:40:46.207Z,3.90
2022-07-26T11:43:12.568Z,3.78
2022-07-26T11:45:38.993Z,2.22
2022-07-26T11:48:06.122Z,3.13
2022-07-26T11:50:33.246Z,3.78
2022-07-26T11:52:59.438Z,4.57
2022-07-26T11:55:30.334Z,3.97
2022-07-26T11:57:57.365Z,4.35
2022-07-26T12:00:24.335Z,2.53
2022-07-26T12:02:55.768Z,3.50
2022-07-26T12:05:23.506Z,2.58
2022-07-26T12:08:01.140Z,2.65
2022-07-26T12:10:28.152Z,5.25
2022-07-26T12:13:15.832Z,2.85
2022-07-26T12:15:53.076Z,3.63
2022-07-26T12:18:23.728Z,5.00
2022-07-26T12:21:03.624Z,4.93
2022-07-26T12:23:44.897Z,3.35
2022-07-26T12:26:28.842Z,4.78
2022-07-26T12:28:56.176Z,4.50
2022-07-26T12:31:25.232Z,3.78
2022-07-26T12:33:51.722Z,6.95
2022-07-26T12:36:26.903Z,9.15
2022-07-26T12:38:56.142Z,5.20
2022-07-26T12:41:37.093Z,4.22
2022-07-26T12:44:05.164Z,3.03
2022-07-26T12:46:32.959Z,3.38
2022-07-26T12:49:00.621Z,3.30
2022-07-26T12:51:27.226Z,4.25
2022-07-26T12:53:53.494Z,6.50
2022-07-26T12:56:19.650Z,8.52
2022-07-26T12:58:45.838Z,5.78
2022-07-26T13:01:12.140Z,9.35
2022-07-26T13:03:38.375Z,8.40
2022-07-26T13:06:04.585Z,7.85
2022-07-26T13:08:30.751Z,6.93
2022-07-26T13:11:00.129Z,7.90
2022-07-26T13:13:26.480Z,6.93
2022-07-26T13:15:52.634Z,7.30
2022-07-26T13:18:18.806Z,25.33
2022-07-26T13:20:44.988Z,6.25
2022-07-26T13:23:13.912Z,3.65
2022-07-26T13:25:42.149Z,4.25
2022-07-26T13:28:09.362Z,4.47
2022-07-26T13:30:39.528Z,5.88
2022-07-26T13:33:06.591Z,4.82
2022-07-26T13:35:32.847Z,5.60
2022-07-26T13:37:59.031Z,5.45
2022-07-26T13:40:30.704Z,7.22
2022-07-26T13:42:57.607Z,6.32
2022-07-26T13:45:23.764Z,13.13
2022-07-26T13:47:50.110Z,12.68
2022-07-26T13:50:16.291Z,8.63
2022-07-26T13:52:42.528Z,5.43
2022-07-26T13:55:08.852Z,3.10
2022-07-26T13:57:48.013Z,7.35
2022-07-26T14:00:21.220Z,7.63
2022-07-26T14:02:47.654Z,10.43
2022-07-26T14:05:13.917Z,8.02
2022-07-26T14:07:40.695Z,7.22
2022-07-26T14:10:07.387Z,3.70
2022-07-26T14:12:33.577Z,3.33
2022-07-26T14:14:59.748Z,3.05
2022-07-26T14:17:25.895Z,3.90
2022-07-26T14:19:52.067Z,7.97
2022-07-26T14:22:18.244Z,4.45
2022-07-26T14:24:44.430Z,8.02
2022-07-26T14:27:10.685Z,7.97
2022-07-26T14:29:37.578Z,9.65
2022-07-26T14:32:03.944Z,8.48
2022-07-26T14:34:30.243Z,20.27
2022-07-26T14:36:56.418Z,12.48
2022-07-26T14:39:22.603Z,7.00
2022-07-26T14:41:48.795Z,15.82
2022-07-26T14:44:15.048Z,28.70
2022-07-26T14:46:43.857Z,11.98
2022-07-26T14:49:10.149Z,12.07
2022-07-26T14:51:36.748Z,10.98
2022-07-26T14:54:03.151Z,14.43
2022-07-26T14:56:29.304Z,23.02
2022-07-26T14:58:55.495Z,14.38
2022-07-26T15:01:21.711Z,18.45
2022-07-26T15:03:50.252Z,26.05
2022-07-26T15:06:16.880Z,44.72
2022-07-26T15:08:43.074Z,20.35
2022-07-26T15:11:09.276Z,16.63
2022-07-26T15:13:35.446Z,12.27
2022-07-26T15:16:01.657Z,5.75
2022-07-26T15:18:27.892Z,7.82
2022-07-26T15:20:54.189Z,4.93
2022-07-26T15:23:20.350Z,4.78
2022-07-26T15:25:48.726Z,6.22
2022-07-26T15:28:15.243Z,4.70
2022-07-26T15:30:41.680Z,9.65
2022-07-26T15:33:08.315Z,9.77
2022-07-26T15:35:37.117Z,5.53
2022-07-26T15:38:03.850Z,2.90
2022-07-26T15:40:30.337Z,3.55
2022-07-26T15:42:56.504Z,3.25
2022-07-26T15:45:23.057Z,3.15
2022-07-26T15:47:54.723Z,3.85
2022-07-26T15:50:22.386Z,3.10
2022-07-26T15:52:48.617Z,3.05
2022-07-26T15:55:16.971Z,4.28
2022-07-26T15:57:44.089Z,3.05
2022-07-26T16:00:12.339Z,3.08
2022-07-26T16:02:39.895Z,2.13
2022-07-26T16:05:06.869Z,3.08
2022-07-26T16:07:33.034Z,2.03
2022-07-26T16:09:59.251Z,2.05
2022-07-26T16:12:25.443Z,2.30
2022-07-26T16:14:51.611Z,1.92
2022-07-26T16:17:17.787Z,3.47
2022-07-26T16:19:43.939Z,1.80
2022-07-26T16:22:10.082Z,2.72
2022-07-26T16:24:37.224Z,2.78
2022-07-26T16:27:04.096Z,3.15
2022-07-26T16:29:30.279Z,4.05
2022-07-26T16:31:56.472Z,2.47
2022-07-26T16:34:22.740Z,3.40
2022-07-26T16:36:48.988Z,4.00
2022-07-26T16:39:15.658Z,2.65
2022-07-26T16:41:42.124Z,2.97
2022-07-26T16:44:08.282Z,3.75
2022-07-26T16:46:34.606Z,2.38
2022-07-26T16:49:00.906Z,2.75
2022-07-26T16:51:27.328Z,3.22
2022-07-26T16:53:54.021Z,2.08
2022-07-26T16:56:20.304Z,3.88
2022-07-26T16:58:46.585Z,7.93
2022-07-26T17:01:12.787Z,2.97
2022-07-26T17:03:38.991Z,1.40
2022-07-26T17:06:07.012Z,1.67
2022-07-26T17:08:33.626Z,3.50
2022-07-26T17:10:59.977Z,1.58
2022-07-26T17:13:26.143Z,1.98
2022-07-26T17:15:52.383Z,1.90
2022-07-26T17:18:18.605Z,1.70
2022-07-26T17:20:45.255Z,2.17
2022-07-26T17:23:11.584Z,1.88
2022-07-26T17:25:37.919Z,2.50
2022-07-26T17:28:04.273Z,2.50
2022-07-26T17:30:30.467Z,1.50
2022-07-26T17:32:56.742Z,2.15
2022-07-26T17:35:22.971Z,1.75
2022-07-26T17:37:49.176Z,1.90
2022-07-26T17:40:16.254Z,2.00
2022-07-26T17:42:42.694Z,1.50
2022-07-26T17:45:09.263Z,1.95
2022-07-26T17:47:35.419Z,2.40
2022-07-26T17:52:51.039Z,2.00
2022-07-26T17:55:19.115Z,1.90
2022-07-26T17:57:45.939Z,1.60
2022-07-26T18:00:12.724Z,1.50
2022-07-26T18:02:38.862Z,1.60
2022-07-26T18:05:05.583Z,2.03
2022-07-26T18:07:31.841Z,2.08
2022-07-26T18:09:58.003Z,1.60
2022-07-26T18:12:24.144Z,1.65
2022-07-26T18:14:50.305Z,1.60
2022-07-26T18:17:16.454Z,3.45
2022-07-26T18:19:42.654Z,2.20
2022-07-26T18:22:08.813Z,2.17
2022-07-26T18:24:34.999Z,2.67
2022-07-26T18:27:01.154Z,2.50
2022-07-26T18:29:27.503Z,3.03
2022-07-26T18:31:53.720Z,3.70
2022-07-26T18:34:20.016Z,5.50
2022-07-26T18:36:46.256Z,3.63
2022-07-26T18:39:12.994Z,3.33
2022-07-26T18:41:39.394Z,3.03
2022-07-26T18:44:05.718Z,2.15
2022-07-26T18:46:32.050Z,2.40
2022-07-26T18:49:00.142Z,2.50
2022-07-26T18:51:26.641Z,1.70
2022-07-26T18:53:52.917Z,2.10
2022-07-26T18:56:20.059Z,1.85
2022-07-26T18:58:46.915Z,4.28
2022-07-26T19:01:13.169Z,2.10
2022-07-26T19:03:39.617Z,1.80
2022-07-26T19:06:05.920Z,1.98
2022-07-26T19:08:32.078Z,2.53
2022-07-26T19:10:58.290Z,1.60
2022-07-26T19:13:24.505Z,2.00
2022-07-26T19:15:50.715Z,2.75
2022-07-26T19:18:16.941Z,1.60
2022-07-26T19:20:44.072Z,2.90
2022-07-26T19:23:10.626Z,1.95
2022-07-26T19:25:38.257Z,1.88
2022-07-26T19:28:06.160Z,3.03
2022-07-26T19:30:36.416Z,3.42
2022-07-26T19:33:02.822Z,3.10
2022-07-26T19:35:29.355Z,2.63
2022-07-26T19:37:55.616Z,2.17
2022-07-26T19:40:22.022Z,2.25
2022-07-26T19:42:48.188Z,2.95
2022-07-26T19:45:14.418Z,1.77
2022-07-26T19:47:40.787Z,2.58
2022-07-26T19:50:08.898Z,1.63
2022-07-26T19:52:35.099Z,1.65
2022-07-26T19:55:01.252Z,2.25
2022-07-26T19:57:27.578Z,3.80
2022-07-26T19:59:54.494Z,3.13
2022-07-26T20:02:20.670Z,3.78
2022-07-26T20:04:49.139Z,4.35
2022-07-26T20:07:19.566Z,2.67
2022-07-26T20:09:47.719Z,3.80
2022-07-26T20:12:13.917Z,3.38
2022-07-26T20:14:40.071Z,4.35
2022-07-26T20:17:11.754Z,4.05
2022-07-26T20:19:39.370Z,4.32
2022-07-26T20:22:05.727Z,5.53
2022-07-26T20:24:32.014Z,5.97
2022-07-26T20:26:58.156Z,4.75
2022-07-26T20:29:24.334Z,4.80
2022-07-26T20:31:50.489Z,5.72
2022-07-26T20:34:16.667Z,5.78
2022-07-26T20:36:42.829Z,6.35
2022-07-26T20:39:09.530Z,6.80
2022-07-26T20:41:36.074Z,5.15
2022-07-26T20:44:02.239Z,5.25
2022-07-26T20:46:28.494Z,5.45
2022-07-26T20:48:55.193Z,5.13
2022-07-26T20:51:21.415Z,5.15
2022-07-26T20:53:47.624Z,4.65
2022-07-26T20:56:13.823Z,7.32
2022-07-26T20:58:40.186Z,5.43
2022-07-26T21:01:06.381Z,6.53
2022-07-26T21:03:32.567Z,6.05
2022-07-26T21:05:59.479Z,7.15
2022-07-26T21:08:25.631Z,6.88
2022-07-26T21:10:51.822Z,6.38
2022-07-26T21:13:18.475Z,6.85
2022-07-26T21:15:44.612Z,5.65
2022-07-26T21:18:12.198Z,4.38
2022-07-26T21:20:38.588Z,5.15
2022-07-26T21:23:16.761Z,5.68
2022-07-26T21:25:43.846Z,8.38
2022-07-26T21:28:09.999Z,6.28
2022-07-26T21:30:36.156Z,4.20
2022-07-26T21:33:02.315Z,3.92
2022-07-26T21:35:28.487Z,4.15
2022-07-26T21:37:54.666Z,7.88
2022-07-26T21:40:20.811Z,4.82
2022-07-26T21:42:46.956Z,4.93
2022-07-26T21:45:13.116Z,4.82
2022-07-26T21:47:39.282Z,3.97
2022-07-26T21:50:05.894Z,5.20
2022-07-26T21:52:32.033Z,6.05
2022-07-26T21:54:58.236Z,6.45
2022-07-26T21:57:24.418Z,5.00
2022-07-26T21:59:50.577Z,7.10
2022-07-26T22:02:19.181Z,5.50
2022-07-26T22:04:48.023Z,4.90
2022-07-26T22:07:14.169Z,6.80
2022-07-26T22:09:40.347Z,5.88
2022-07-26T22:12:06.885Z,5.45
2022-07-26T22:14:33.058Z,5.47
2022-07-26T22:16:59.260Z,8.57
2022-07-26T22:19:25.499Z,5.70
2022-07-26T22:21:51.695Z,8.57
2022-07-26T22:24:17.856Z,7.95
2022-07-26T22:26:44.115Z,9.75
2022-07-26T22:29:10.528Z,6.80
2022-07-26T22:31:37.091Z,7.70
2022-07-26T22:34:03.283Z,11.75
2022-07-26T22:36:29.505Z,7.30
2022-07-26T22:38:55.660Z,6.97
2022-07-26T22:41:21.803Z,4.85
2022-07-26T22:43:47.991Z,4.93
2022-07-26T22:46:14.345Z,8.55
2022-07-26T22:48:44.464Z,7.55
2022-07-26T22:51:13.766Z,5.82
2022-07-26T22:53:39.945Z,7.20
2022-07-26T22:56:06.163Z,5.93
2022-07-26T22:58:32.322Z,5.93
2022-07-26T23:00:58.640Z,5.10
2022-07-26T23:03:25.006Z,8.35
2022-07-26T23:05:54.324Z,4.05
2022-07-26T23:11:06.803Z,6.85
2022-07-26T23:13:33.024Z,3.97
2022-07-26T23:16:01.197Z,5.93
2022-07-26T23:18:28.151Z,4.30
2022-07-26T23:20:54.293Z,6.22
2022-07-26T23:23:20.452Z,6.13
2022-07-26T23:25:46.590Z,7.18
2022-07-26T23:28:36.043Z,6.40
2022-07-26T23:30:59.994Z,4.20
2022-07-26T23:33:53.281Z,7.00
2022-07-26T23:36:12.287Z,5.88
2022-07-26T23:38:38.454Z,4.38
2022-07-26T23:41:04.598Z,4.60
2022-07-26T23:43:30.789Z,5.90
2022-07-26T23:45:56.938Z,6.68
2022-07-26T23:48:23.178Z,6.10
2022-07-26T23:50:49.330Z,6.30
2022-07-26T23:53:15.488Z,6.45
2022-07-26T23:55:41.646Z,7.13
2022-07-26T23:58:07.845Z,4.90
